Time;durP1;ratioP1;P1;durP2;ratioP2;P2;SDS_P1;SDS_P2;PMS_P1;PMS_P2;Temp;Humidity;BMP_temperature;BMP_pressure;BME280_temperature;BME280_humidity;BME280_pressure;Samples;Min_cycle;Max_cycle;Signal;HPM_P1;HPM_P2
2023/11/07 00:01:12;;;;;;;5.15;3.20;;;24.00;47.70;;;;;;6165317;28;80921;-77
2023/11/07 00:04:12;;;;;;;5.95;3.65;;;24.00;47.70;;;;;;6184293;28;80925;-77
2023/11/07 00:07:13;;;;;;;6.20;3.15;;;24.00;47.60;;;;;;6185149;28;80813;-77
2023/11/07 00:10:13;;;;;;;5.65;3.00;;;24.00;47.70;;;;;;6180118;28;80604;-76
2023/11/07 00:13:14;;;;;;;5.32;3.30;;;24.00;47.60;;;;;;6178158;28;80451;-74
2023/11/07 00:16:15;;;;;;;4.03;2.90;;;24.00;47.50;;;;;;6192539;28;81725;-72
2023/11/07 00:19:15;;;;;;;4.90;3.22;;;24.00;47.50;;;;;;6204309;28;80592;-74
2023/11/07 00:22:16;;;;;;;4.70;2.83;;;24.00;47.50;;;;;;6190408;28;80490;-75
2023/11/07 00:25:16;;;;;;;5.28;3.50;;;24.00;47.50;;;;;;6199131;28;80335;-73
2023/11/07 00:28:17;;;;;;;4.07;2.50;;;24.00;47.50;;;;;;6197719;28;81748;-72
2023/11/07 00:31:17;;;;;;;5.85;3.60;;;24.00;47.60;;;;;;6177872;28;80146;-72
2023/11/07 00:34:18;;;;;;;4.03;3.08;;;24.00;47.50;;;;;;6183754;28;80846;-68
2023/11/07 00:37:18;;;;;;;4.38;2.63;;;24.00;47.50;;;;;;6183938;28;82677;-63
2023/11/07 00:40:19;;;;;;;5.47;3.70;;;24.00;47.60;;;;;;6190236;28;82117;-64
2023/11/07 00:43:20;;;;;;;5.25;3.15;;;24.00;47.60;;;;;;6179186;28;80673;-62
2023/11/07 00:46:20;;;;;;;5.35;2.78;;;24.00;47.70;;;;;;6176275;28;84030;-62
2023/11/07 00:49:21;;;;;;;5.63;3.38;;;24.00;47.70;;;;;;6176157;28;80358;-63
2023/11/07 00:52:21;;;;;;;5.43;3.28;;;23.90;47.70;;;;;;6175162;28;82087;-68
2023/11/07 00:55:22;;;;;;;5.82;3.72;;;24.00;47.70;;;;;;6167749;28;80524;-68
2023/11/07 00:58:22;;;;;;;4.75;3.10;;;24.00;47.70;;;;;;6179374;28;81092;-68
2023/11/07 01:01:23;;;;;;;5.65;3.30;;;24.00;48.40;;;;;;6154039;28;81960;-67
2023/11/07 01:04:23;;;;;;;4.70;2.92;;;23.90;47.80;;;;;;6169286;28;82204;-68
2023/11/07 01:07:24;;;;;;;5.43;3.33;;;23.90;47.80;;;;;;6173596;28;80475;-67
2023/11/07 01:10:24;;;;;;;5.72;3.28;;;24.00;47.90;;;;;;6175454;28;85388;-67
2023/11/07 01:13:25;;;;;;;6.18;3.40;;;24.00;47.80;;;;;;6196308;28;80229;-68
2023/11/07 01:16:25;;;;;;;4.93;2.58;;;24.00;47.80;;;;;;6186234;28;81081;-65
2023/11/07 01:19:29;;;;;;;6.18;3.00;;;23.90;47.80;;;;;;6190121;28;80694;-67
2023/11/07 01:22:30;;;;;;;4.72;2.88;;;23.90;48.00;;;;;;6199004;28;82296;-67
2023/11/07 01:25:31;;;;;;;5.80;3.70;;;24.00;47.90;;;;;;6187923;28;83462;-66
2023/11/07 01:28:31;;;;;;;5.40;3.08;;;24.00;47.90;;;;;;6177317;28;80752;-66
2023/11/07 01:31:32;;;;;;;4.72;2.97;;;24.00;47.90;;;;;;6185642;28;80888;-66
2023/11/07 01:34:32;;;;;;;4.57;3.10;;;24.00;47.90;;;;;;6168218;28;81349;-68
2023/11/07 01:37:33;;;;;;;5.47;3.28;;;24.00;47.90;;;;;;6176183;28;80695;-68
2023/11/07 01:40:33;;;;;;;3.67;2.80;;;24.00;47.80;;;;;;6176107;28;81477;-70
2023/11/07 01:43:34;;;;;;;4.72;2.65;;;24.00;47.80;;;;;;6178822;28;80304;-70
2023/11/07 01:46:34;;;;;;;6.72;3.47;;;24.00;47.70;;;;;;6177688;28;80458;-69
2023/11/07 01:49:35;;;;;;;3.85;2.60;;;24.00;47.80;;;;;;6176683;28;80389;-68
2023/11/07 01:52:36;;;;;;;5.20;2.97;;;23.90;47.60;;;;;;6175667;28;82722;-69
2023/11/07 01:55:36;;;;;;;4.55;2.70;;;24.00;47.70;;;;;;6178040;28;80580;-68
2023/11/07 01:58:37;;;;;;;3.88;2.50;;;23.90;47.60;;;;;;6175875;28;81726;-68
2023/11/07 02:01:38;;;;;;;4.28;2.47;;;23.90;47.60;;;;;;6176433;28;81795;-68
2023/11/07 02:04:38;;;;;;;4.35;2.47;;;23.90;47.70;;;;;;6175983;28;80599;-66
2023/11/07 02:07:39;;;;;;;3.70;2.33;;;23.90;47.80;;;;;;6177049;28;80723;-68
2023/11/07 02:10:39;;;;;;;3.30;2.45;;;23.90;47.70;;;;;;6176942;28;81135;-66
2023/11/07 02:13:40;;;;;;;4.45;2.53;;;23.90;47.80;;;;;;6174023;28;81778;-65
2023/11/07 02:16:40;;;;;;;4.07;2.42;;;23.90;47.90;;;;;;6174625;28;83484;-65
2023/11/07 02:19:41;;;;;;;5.75;2.80;;;23.90;48.70;;;;;;6175407;28;81816;-65
2023/11/07 02:22:41;;;;;;;5.15;2.42;;;24.00;48.00;;;;;;6176170;28;80340;-66
2023/11/07 02:25:42;;;;;;;4.63;2.20;;;24.00;48.00;;;;;;6176396;28;82331;-74
2023/11/07 02:28:43;;;;;;;3.20;2.47;;;24.00;47.90;;;;;;6176785;28;81799;-81
2023/11/07 02:31:43;;;;;;;3.67;2.42;;;23.90;47.90;;;;;;6175247;28;80847;-79
2023/11/07 02:34:44;;;;;;;5.30;2.65;;;23.90;47.80;;;;;;6177894;28;80353;-79
2023/11/07 02:37:44;;;;;;;3.72;2.33;;;23.90;48.30;;;;;;6177856;28;80355;-74
2023/11/07 02:40:45;;;;;;;5.55;2.28;;;23.90;47.60;;;;;;6178146;28;80430;-73
2023/11/07 02:43:45;;;;;;;4.30;2.58;;;23.90;47.40;;;;;;6176408;28;82293;-74
2023/11/07 02:46:46;;;;;;;4.28;2.53;;;23.90;47.40;;;;;;6176910;28;80393;-75
2023/11/07 02:49:47;;;;;;;2.42;1.92;;;23.90;47.30;;;;;;6166072;28;81940;-79
2023/11/07 02:52:47;;;;;;;5.65;2.25;;;23.90;47.20;;;;;;6173730;28;80362;-78
2023/11/07 02:55:48;;;;;;;5.57;2.55;;;23.90;47.20;;;;;;6177072;28;80861;-75
2023/11/07 02:58:48;;;;;;;3.25;2.10;;;23.90;47.20;;;;;;6176231;28;81504;-74
2023/11/07 03:01:49;;;;;;;5.35;2.58;;;23.90;47.50;;;;;;6176173;28;80294;-67
2023/11/07 03:04:49;;;;;;;3.28;2.28;;;23.80;47.50;;;;;;6177060;28;82023;-68
2023/11/07 03:07:50;;;;;;;4.28;2.33;;;23.80;47.80;;;;;;6177804;28;81551;-68
2023/11/07 03:10:51;;;;;;;4.63;2.55;;;23.90;47.60;;;;;;6176100;28;80624;-67
2023/11/07 03:13:51;;;;;;;3.50;2.38;;;23.90;47.50;;;;;;6176983;28;80779;-68
2023/11/07 03:16:52;;;;;;;4.60;2.50;;;23.90;47.40;;;;;;6175990;28;80454;-69
2023/11/07 03:19:53;;;;;;;4.90;2.10;;;23.90;48.00;;;;;;6174972;28;81665;-70
2023/11/07 03:22:53;;;;;;;5.07;2.58;;;23.90;47.30;;;;;;6175320;28;81145;-69
2023/11/07 03:25:54;;;;;;;4.20;2.63;;;23.90;47.30;;;;;;6175942;28;80756;-68
2023/11/07 03:28:55;;;;;;;5.25;2.90;;;23.80;47.30;;;;;;6174035;28;81768;-67
2023/11/07 03:31:56;;;;;;;6.22;2.55;;;23.90;47.30;;;;;;6174836;28;80223;-67
2023/11/07 03:34:57;;;;;;;3.83;2.50;;;23.90;47.30;;;;;;6178371;28;80897;-69
2023/11/07 03:37:58;;;;;;;4.53;2.65;;;23.90;47.40;;;;;;6174069;28;81232;-70
2023/11/07 03:40:59;;;;;;;5.25;2.53;;;23.90;47.30;;;;;;6186513;28;86387;-70
2023/11/07 03:43:59;;;;;;;4.97;2.78;;;23.90;47.30;;;;;;6179042;28;80708;-70
2023/11/07 03:47:00;;;;;;;4.57;2.90;;;23.90;47.30;;;;;;6180547;28;80414;-70
2023/11/07 03:50:00;;;;;;;4.32;2.40;;;23.90;47.30;;;;;;6179862;28;80909;-70
2023/11/07 03:53:00;;;;;;;5.60;3.08;;;23.90;47.30;;;;;;6179374;28;81760;-69
2023/11/07 03:56:02;;;;;;;5.38;2.80;;;23.90;47.40;;;;;;6179906;28;80378;-74
2023/11/07 03:59:03;;;;;;;3.88;2.85;;;23.90;47.30;;;;;;6179704;28;80342;-73
2023/11/07 04:02:05;;;;;;;4.70;2.95;;;23.80;47.40;;;;;;6177763;28;80850;-72
2023/11/07 04:05:05;;;;;;;7.00;2.65;;;23.80;47.40;;;;;;6178712;28;80241;-71
2023/11/07 04:08:06;;;;;;;6.22;3.17;;;23.80;47.20;;;;;;6180704;28;80558;-69
2023/11/07 04:11:06;;;;;;;4.35;3.00;;;23.90;47.30;;;;;;6173218;28;82837;-69
2023/11/07 04:14:07;;;;;;;4.72;2.85;;;23.90;47.30;;;;;;6178013;28;83465;-70
2023/11/07 04:17:07;;;;;;;5.22;3.10;;;23.90;47.80;;;;;;6179825;28;80629;-69
2023/11/07 04:20:11;;;;;;;8.35;3.58;;;23.90;47.70;;;;;;6179056;28;80005;-71
2023/11/07 04:23:11;;;;;;;5.55;3.08;;;23.80;47.60;;;;;;6178123;28;80655;-65
2023/11/07 04:26:12;;;;;;;7.28;2.90;;;23.80;47.10;;;;;;6177927;28;80312;-65
2023/11/07 04:29:13;;;;;;;5.80;3.35;;;23.90;47.60;;;;;;6178759;28;80078;-63
2023/11/07 04:32:14;;;;;;;4.78;2.80;;;23.90;47.40;;;;;;6178560;28;83382;-64
2023/11/07 04:35:15;;;;;;;4.03;2.70;;;23.90;47.20;;;;;;6178571;28;81010;-60
2023/11/07 04:38:16;;;;;;;5.05;3.00;;;23.90;46.90;;;;;;6177943;28;80844;-62
2023/11/07 04:41:17;;;;;;;4.45;3.13;;;24.00;47.00;;;;;;6178078;28;80737;-59
2023/11/07 04:44:18;;;;;;;7.05;2.92;;;24.00;47.10;;;;;;6178117;28;80733;-60
2023/11/07 04:47:20;;;;;;;3.30;2.75;;;24.00;47.00;;;;;;6175942;28;80545;-61
2023/11/07 04:50:21;;;;;;;6.13;3.55;;;24.00;47.20;;;;;;6175603;28;80796;-65
2023/11/07 04:53:22;;;;;;;5.13;3.70;;;24.00;47.70;;;;;;6178545;28;80312;-68
2023/11/07 04:56:23;;;;;;;7.70;3.50;;;24.00;47.60;;;;;;6178661;28;81061;-68
2023/11/07 04:59:23;;;;;;;5.25;3.38;;;24.10;47.80;;;;;;6180118;28;81760;-70
2023/11/07 05:02:24;;;;;;;7.20;3.70;;;24.10;47.90;;;;;;6177462;28;81299;-66
2023/11/07 05:05:25;;;;;;;9.45;3.33;;;24.20;48.00;;;;;;6176351;28;80948;-68
2023/11/07 05:08:25;;;;;;;6.68;4.15;;;24.20;47.60;;;;;;6178240;28;80999;-65
2023/11/07 05:11:27;;;;;;;4.43;3.50;;;24.20;48.20;;;;;;6177700;28;81000;-61
2023/11/07 05:14:29;;;;;;;8.77;4.00;;;24.30;48.50;;;;;;6169536;28;82040;-63
2023/11/07 05:17:29;;;;;;;6.43;3.80;;;24.20;48.10;;;;;;6178629;28;80110;-67
2023/11/07 05:20:30;;;;;;;10.45;3.97;;;24.30;48.00;;;;;;6176078;28;81397;-67
2023/11/07 05:23:30;;;;;;;13.18;4.25;;;24.30;47.80;;;;;;6178094;28;80556;-65
2023/11/07 05:26:31;;;;;;;12.60;4.85;;;24.30;48.40;;;;;;6174678;28;84340;-68
2023/11/07 05:29:31;;;;;;;10.27;4.75;;;24.30;48.60;;;;;;6176965;28;81047;-66
2023/11/07 05:32:32;;;;;;;9.25;4.45;;;24.30;48.60;;;;;;6175086;28;80667;-64
2023/11/07 05:35:33;;;;;;;13.80;5.10;;;24.30;48.50;;;;;;6175356;28;81782;-66
2023/11/07 05:38:34;;;;;;;13.30;4.30;;;24.20;48.70;;;;;;6175134;28;81067;-65
2023/11/07 05:41:34;;;;;;;12.50;5.10;;;24.20;48.30;;;;;;6176971;28;82111;-69
2023/11/07 05:44:35;;;;;;;12.05;4.85;;;24.20;48.30;;;;;;6176540;28;80589;-67
2023/11/07 05:47:40;;;;;;;23.13;4.75;;;24.20;48.30;;;;;;6178296;28;80554;-66
2023/11/07 05:50:41;;;;;;;;;;;24.20;48.30;;;;;;6174354;28;80794;-66
2023/11/07 05:53:41;;;;;;;11.57;5.30;;;24.20;48.20;;;;;;6178731;28;80384;-67
2023/11/07 05:56:42;;;;;;;13.40;4.88;;;24.20;47.80;;;;;;6172742;28;80614;-68
2023/11/07 05:59:43;;;;;;;15.23;5.13;;;24.20;47.70;;;;;;6172923;28;80547;-66
2023/11/07 06:02:43;;;;;;;10.00;5.38;;;24.20;47.50;;;;;;6173774;28;81589;-66
2023/11/07 06:05:44;;;;;;;13.80;5.70;;;24.20;47.40;;;;;;6175333;28;83666;-68
2023/11/07 06:08:45;;;;;;;12.85;5.80;;;24.10;47.10;;;;;;6177084;28;80573;-66
2023/11/07 06:11:45;;;;;;;14.73;6.82;;;24.10;47.00;;;;;;6176676;28;80982;-65
2023/11/07 06:14:46;;;;;;;11.23;5.63;;;24.10;46.80;;;;;;6175480;28;83176;-67
2023/11/07 06:17:47;;;;;;;11.02;6.25;;;24.10;46.60;;;;;;6177108;28;80280;-66
2023/11/07 06:20:48;;;;;;;9.57;5.43;;;24.10;46.50;;;;;;6176709;28;80567;-66
2023/11/07 06:23:49;;;;;;;10.18;6.30;;;24.10;46.60;;;;;;6176583;28;82836;-64
2023/11/07 06:26:49;;;;;;;13.20;7.00;;;24.10;46.40;;;;;;6176628;28;80443;-64
2023/11/07 06:29:50;;;;;;;9.60;5.57;;;24.10;46.30;;;;;;6176379;28;80428;-64
2023/11/07 06:32:50;;;;;;;11.10;6.18;;;24.10;46.30;;;;;;6177325;28;80451;-65
2023/11/07 06:35:52;;;;;;;12.30;6.30;;;24.10;46.50;;;;;;6176164;28;80515;-65
2023/11/07 06:38:53;;;;;;;10.55;5.93;;;24.10;46.50;;;;;;6175389;28;81108;-65
2023/11/07 06:41:55;;;;;;;10.23;6.07;;;24.10;46.60;;;;;;6177330;28;80961;-63
2023/11/07 06:44:55;;;;;;;13.57;6.28;;;24.10;46.40;;;;;;6177073;28;80259;-63
2023/11/07 06:47:56;;;;;;;13.77;6.45;;;24.10;46.40;;;;;;6175629;28;80667;-64
2023/11/07 06:50:57;;;;;;;12.75;6.28;;;24.10;46.50;;;;;;6173868;28;83468;-65
2023/11/07 06:53:59;;;;;;;12.50;5.93;;;24.10;46.30;;;;;;6175701;28;81107;-64
2023/11/07 06:57:00;;;;;;;10.38;5.90;;;24.10;46.30;;;;;;6176142;28;80648;-65
2023/11/07 07:00:05;;;;;;;10.68;6.57;;;24.20;46.30;;;;;;6159860;28;82674;-64
2023/11/07 07:03:06;;;;;;;13.25;6.20;;;24.20;46.90;;;;;;6157951;28;80953;-64
2023/11/07 07:06:06;;;;;;;11.38;6.43;;;24.20;46.60;;;;;;6168358;28;80898;-65
2023/11/07 07:09:08;;;;;;;13.23;6.43;;;24.20;46.60;;;;;;6173471;28;81490;-64
2023/11/07 07:12:08;;;;;;;9.57;5.88;;;24.30;46.70;;;;;;6175095;28;81376;-64
2023/11/07 07:15:10;;;;;;;11.52;6.03;;;24.30;46.60;;;;;;6175770;28;82123;-65
2023/11/07 07:18:14;;;;;;;9.57;6.07;;;24.30;46.50;;;;;;6174705;28;80763;-66
2023/11/07 07:21:16;;;;;;;15.93;6.22;;;24.30;46.60;;;;;;6174345;28;80859;-67
2023/11/07 07:24:21;;;;;;;13.23;7.32;;;24.30;46.50;;;;;;6176829;28;80868;-67
2023/11/07 07:27:24;;;;;;;11.88;6.63;;;24.30;46.30;;;;;;6174916;28;80748;-66
2023/11/07 07:30:26;;;;;;;11.15;6.50;;;24.40;46.30;;;;;;6175768;28;80899;-66
2023/11/07 07:33:27;;;;;;;10.75;6.20;;;24.40;46.20;;;;;;6175709;28;80789;-67
2023/11/07 07:36:27;;;;;;;13.43;6.38;;;24.40;46.10;;;;;;6175016;28;80302;-64
2023/11/07 07:39:27;;;;;;;11.43;6.40;;;24.40;45.90;;;;;;6174848;28;81437;-64
2023/11/07 07:42:28;;;;;;;10.90;7.00;;;24.50;45.90;;;;;;6174857;28;80460;-64
2023/11/07 07:45:29;;;;;;;10.07;6.07;;;24.50;45.80;;;;;;6175279;28;81551;-65
2023/11/07 07:48:29;;;;;;;12.55;7.05;;;24.60;45.90;;;;;;6176892;28;80180;-66
2023/11/07 07:51:30;;;;;;;12.38;6.40;;;24.60;45.90;;;;;;6175326;28;80526;-65
2023/11/07 07:54:30;;;;;;;12.10;6.10;;;24.60;45.80;;;;;;6174804;28;80710;-69
2023/11/07 07:57:31;;;;;;;11.30;6.40;;;24.70;45.80;;;;;;6170811;28;80478;-72
2023/11/07 08:00:31;;;;;;;10.40;6.30;;;24.70;45.70;;;;;;6167025;28;80548;-72
2023/11/07 08:03:32;;;;;;;11.23;6.57;;;24.70;45.80;;;;;;6175169;28;80338;-72
2023/11/07 08:06:33;;;;;;;11.68;6.22;;;24.80;45.60;;;;;;6175765;28;81333;-69
2023/11/07 08:09:34;;;;;;;12.63;6.63;;;24.80;45.60;;;;;;6174980;28;81161;-69
2023/11/07 08:12:35;;;;;;;10.63;6.35;;;24.90;45.60;;;;;;6176204;28;80665;-70
2023/11/07 08:15:36;;;;;;;11.50;6.00;;;24.90;45.50;;;;;;6174697;28;81284;-69
2023/11/07 08:18:36;;;;;;;9.27;6.18;;;24.90;45.60;;;;;;6174156;28;80860;-69
2023/11/07 08:21:37;;;;;;;9.23;5.78;;;25.00;45.50;;;;;;6179014;28;80567;-68
2023/11/07 08:24:38;;;;;;;9.85;6.22;;;25.00;45.40;;;;;;6178319;28;80837;-69
2023/11/07 08:27:39;;;;;;;11.90;5.82;;;25.10;45.40;;;;;;6178638;28;80811;-70
2023/11/07 08:30:43;;;;;;;9.18;6.13;;;25.10;45.20;;;;;;6178634;28;83356;-69
2023/11/07 08:33:47;;;;;;;10.20;6.47;;;25.10;45.30;;;;;;6177379;28;81124;-71
2023/11/07 08:36:48;;;;;;;10.48;6.22;;;25.10;45.30;;;;;;6177859;28;80761;-70
2023/11/07 08:39:49;;;;;;;10.88;5.78;;;25.10;45.30;;;;;;6177728;28;80527;-69
2023/11/07 08:42:50;;;;;;;10.13;5.63;;;25.10;45.30;;;;;;6177137;28;82316;-70
2023/11/07 08:45:51;;;;;;;8.68;5.30;;;25.10;45.30;;;;;;6178645;28;81853;-70
2023/11/07 08:48:53;;;;;;;10.20;5.10;;;25.20;45.40;;;;;;6177560;28;80437;-65
2023/11/07 08:51:57;;;;;;;7.93;4.70;;;25.20;45.40;;;;;;6178811;28;82055;-66
2023/11/07 08:55:01;;;;;;;11.80;5.88;;;25.20;45.40;;;;;;6178950;28;80507;-66
2023/11/07 08:58:03;;;;;;;8.63;6.07;;;25.20;45.40;;;;;;6178750;28;80539;-66
2023/11/07 09:01:04;;;;;;;10.55;5.32;;;25.30;45.50;;;;;;6177082;28;80220;-66
2023/11/07 09:04:09;;;;;;;9.50;5.18;;;25.30;45.50;;;;;;6176523;28;80674;-67
2023/11/07 09:07:11;;;;;;;8.68;5.45;;;25.30;45.40;;;;;;6177815;28;80658;-66
2023/11/07 09:10:13;;;;;;;6.55;4.47;;;25.40;45.50;;;;;;6177956;28;80511;-68
2023/11/07 09:13:14;;;;;;;7.88;4.47;;;25.40;45.40;;;;;;6177514;28;80999;-68
2023/11/07 09:16:15;;;;;;;7.38;4.45;;;25.40;45.40;;;;;;6178755;28;80479;-65
2023/11/07 09:19:18;;;;;;;7.85;4.32;;;25.40;45.50;;;;;;6176657;28;80548;-66
2023/11/07 09:22:18;;;;;;;4.57;4.00;;;25.40;45.50;;;;;;6177071;28;80587;-67
2023/11/07 09:25:21;;;;;;;7.70;4.55;;;25.40;45.60;;;;;;6178151;28;80821;-67
2023/11/07 09:28:21;;;;;;;6.68;4.13;;;25.50;45.70;;;;;;6183215;28;80215;-65
2023/11/07 09:31:23;;;;;;;8.23;4.18;;;25.60;45.70;;;;;;6180306;28;83758;-67
2023/11/07 09:34:24;;;;;;;6.78;3.60;;;25.70;45.60;;;;;;6183566;28;80413;-66
2023/11/07 09:37:25;;;;;;;7.60;4.32;;;25.70;45.60;;;;;;6173374;28;80606;-66
2023/11/07 09:40:25;;;;;;;6.88;4.18;;;25.80;45.80;;;;;;6159525;28;80591;-66
2023/11/07 09:43:26;;;;;;;6.70;4.07;;;25.80;45.60;;;;;;6177279;28;80570;-66
2023/11/07 09:46:27;;;;;;;7.45;4.22;;;25.90;45.90;;;;;;6175950;28;80458;-69
2023/11/07 09:49:29;;;;;;;6.20;3.92;;;25.90;45.60;;;;;;6176505;28;80515;-71
2023/11/07 09:52:29;;;;;;;8.63;4.40;;;26.10;45.60;;;;;;6177083;28;80337;-69
2023/11/07 09:55:30;;;;;;;6.00;3.45;;;26.20;45.40;;;;;;6177781;28;80450;-70
2023/11/07 09:58:31;;;;;;;6.35;3.75;;;26.20;45.30;;;;;;6177525;28;80643;-71
2023/11/07 10:01:33;;;;;;;5.38;3.53;;;26.30;45.30;;;;;;6175659;28;81502;-72
2023/11/07 10:04:33;;;;;;;5.82;3.55;;;26.40;45.30;;;;;;6176931;28;80236;-70
2023/11/07 10:07:34;;;;;;;5.70;3.65;;;26.50;45.30;;;;;;6177307;28;80967;-71
2023/11/07 10:10:34;;;;;;;5.15;3.20;;;26.50;45.10;;;;;;6185391;28;81378;-71
2023/11/07 10:13:35;;;;;;;6.32;3.35;;;26.60;45.10;;;;;;6194452;28;81104;-69
2023/11/07 10:16:36;;;;;;;4.28;3.08;;;26.60;45.00;;;;;;6175988;28;80589;-69
2023/11/07 10:19:36;;;;;;;6.07;3.45;;;26.70;44.90;;;;;;6167489;28;82307;-70
2023/11/07 10:22:37;;;;;;;4.38;3.08;;;26.80;44.80;;;;;;6139987;28;80530;-70
2023/11/07 10:25:38;;;;;;;6.53;3.85;;;26.80;44.80;;;;;;6177059;28;80401;-71
2023/11/07 10:28:39;;;;;;;4.88;2.90;;;26.80;44.70;;;;;;6175205;28;81102;-70
2023/11/07 10:31:42;;;;;;;5.05;3.38;;;26.90;44.80;;;;;;6175856;28;80088;-70
2023/11/07 10:34:42;;;;;;;5.22;3.05;;;26.90;44.70;;;;;;6176893;28;80818;-72
2023/11/07 10:37:42;;;;;;;6.03;3.03;;;27.00;44.70;;;;;;6176345;28;80314;-70
2023/11/07 10:40:43;;;;;;;4.03;2.80;;;27.00;44.60;;;;;;6176361;28;81690;-69
2023/11/07 10:43:43;;;;;;;6.65;3.30;;;27.00;44.50;;;;;;6175757;28;80479;-71
2023/11/07 10:46:44;;;;;;;5.50;3.55;;;27.10;44.50;;;;;;6177904;28;81341;-72
2023/11/07 10:49:45;;;;;;;5.40;3.50;;;27.10;44.50;;;;;;6177084;28;81294;-72
2023/11/07 10:52:48;;;;;;;3.13;2.22;;;27.10;45.10;;;;;;6175695;28;82734;-68
2023/11/07 10:55:49;;;;;;;4.07;2.70;;;27.10;44.40;;;;;;6176608;28;80190;-68
2023/11/07 10:58:51;;;;;;;4.00;2.75;;;27.20;44.40;;;;;;6175552;28;80534;-70
2023/11/07 11:01:51;;;;;;;3.95;2.35;;;27.20;44.30;;;;;;6177057;28;82687;-70
2023/11/07 11:04:52;;;;;;;4.60;2.60;;;27.20;44.30;;;;;;6177789;28;80870;-70
2023/11/07 11:07:53;;;;;;;3.60;2.30;;;27.20;44.20;;;;;;6177245;28;80429;-72
2023/11/07 11:10:54;;;;;;;3.53;2.30;;;27.20;44.20;;;;;;6177895;28;80586;-71
2023/11/07 11:13:54;;;;;;;4.47;2.65;;;27.20;44.20;;;;;;6176157;28;81630;-72
2023/11/07 11:16:55;;;;;;;2.80;2.20;;;27.20;44.20;;;;;;6176779;28;80526;-70
2023/11/07 11:19:55;;;;;;;4.55;2.50;;;27.30;44.30;;;;;;6177249;28;80519;-70
2023/11/07 11:22:56;;;;;;;3.45;2.40;;;27.30;44.20;;;;;;6175632;28;80716;-72
2023/11/07 11:25:56;;;;;;;3.47;2.15;;;27.30;44.20;;;;;;6177654;28;80159;-72
2023/11/07 11:28:57;;;;;;;4.88;2.10;;;27.30;44.10;;;;;;6176223;28;81008;-71
2023/11/07 11:31:58;;;;;;;3.35;2.28;;;27.30;44.10;;;;;;6175219;28;80620;-71
2023/11/07 11:34:58;;;;;;;3.03;2.15;;;27.30;44.20;;;;;;6176481;28;81989;-70
2023/11/07 11:37:59;;;;;;;3.20;1.85;;;27.30;44.10;;;;;;6176447;28;81997;-70
2023/11/07 11:40:59;;;;;;;3.60;1.90;;;27.40;44.10;;;;;;6176973;28;81394;-71
2023/11/07 11:44:00;;;;;;;2.95;2.00;;;27.40;44.10;;;;;;6175517;28;81008;-72
2023/11/07 11:47:00;;;;;;;2.63;1.90;;;27.40;44.10;;;;;;6175582;28;81480;-73
2023/11/07 11:50:01;;;;;;;3.58;2.20;;;27.40;43.90;;;;;;6177047;28;81270;-70
2023/11/07 11:53:02;;;;;;;4.35;2.83;;;27.50;44.00;;;;;;6174971;28;80363;-69
2023/11/07 11:56:04;;;;;;;2.55;2.13;;;27.50;43.90;;;;;;6176956;28;80502;-69
2023/11/07 11:59:05;;;;;;;4.93;1.95;;;27.60;43.80;;;;;;6179838;28;80554;-69
2023/11/07 12:02:07;;;;;;;2.95;1.90;;;27.60;43.70;;;;;;6179595;28;80728;-69
2023/11/07 12:05:07;;;;;;;2.20;1.90;;;27.60;43.60;;;;;;6179269;28;81971;-72
2023/11/07 12:08:08;;;;;;;1.98;1.60;;;27.70;44.20;;;;;;6179891;28;80196;-68
2023/11/07 12:11:09;;;;;;;2.83;2.10;;;27.70;43.40;;;;;;6179533;28;81597;-70
2023/11/07 12:14:10;;;;;;;3.35;1.90;;;27.80;43.60;;;;;;6179647;28;81277;-70
2023/11/07 12:17:11;;;;;;;2.70;1.50;;;27.80;43.40;;;;;;6178569;28;81290;-70
2023/11/07 12:20:13;;;;;;;4.18;2.17;;;27.80;43.20;;;;;;6179000;28;80558;-70
2023/11/07 12:23:14;;;;;;;2.95;1.77;;;27.80;43.20;;;;;;6179348;28;80434;-70
2023/11/07 12:26:14;;;;;;;2.97;1.83;;;27.90;43.10;;;;;;6178842;28;81124;-70
2023/11/07 12:29:15;;;;;;;2.17;1.50;;;27.90;43.10;;;;;;6178282;28;80759;-68
2023/11/07 12:32:15;;;;;;;2.00;1.50;;;27.90;43.10;;;;;;6178597;28;81004;-68
2023/11/07 12:35:16;;;;;;;4.20;1.85;;;27.90;43.00;;;;;;6178709;28;80560;-69
2023/11/07 12:38:19;;;;;;;2.30;1.60;;;27.90;42.90;;;;;;6179798;28;81264;-68
2023/11/07 12:41:20;;;;;;;1.73;1.55;;;27.90;42.90;;;;;;6178173;28;81195;-68
2023/11/07 12:44:22;;;;;;;2.78;1.67;;;27.90;42.80;;;;;;6178205;28;81514;-68
2023/11/07 12:47:23;;;;;;;1.77;1.50;;;27.90;42.80;;;;;;6177601;28;80240;-69
2023/11/07 12:50:24;;;;;;;2.25;1.55;;;28.00;42.90;;;;;;6178709;28;80660;-67
2023/11/07 12:53:24;;;;;;;3.45;2.00;;;28.00;42.90;;;;;;6179258;28;80655;-69
2023/11/07 12:56:25;;;;;;;2.03;1.42;;;28.00;42.80;;;;;;6178880;28;80589;-68
2023/11/07 12:59:26;;;;;;;2.60;1.50;;;28.00;42.80;;;;;;6178387;28;80501;-68
2023/11/07 13:02:27;;;;;;;1.85;1.50;;;28.10;42.80;;;;;;6178285;28;80937;-68
2023/11/07 13:05:28;;;;;;;2.13;1.55;;;28.10;42.70;;;;;;6178123;28;80715;-69
2023/11/07 13:08:28;;;;;;;2.13;1.50;;;28.10;42.60;;;;;;6177490;28;80834;-68
2023/11/07 13:11:29;;;;;;;2.33;1.50;;;28.00;42.80;;;;;;6178852;28;80641;-68
2023/11/07 13:14:30;;;;;;;2.80;1.50;;;27.90;42.80;;;;;;6165513;28;80432;-68
2023/11/07 13:17:34;;;;;;;2.55;1.30;;;27.80;42.90;;;;;;6177508;28;80516;-69
2023/11/07 13:20:34;;;;;;;4.68;1.40;;;27.80;43.00;;;;;;6177859;28;80601;-68
2023/11/07 13:23:36;;;;;;;2.22;1.35;;;27.70;43.10;;;;;;6177649;28;80752;-67
2023/11/07 13:26:36;;;;;;;2.20;1.40;;;27.70;43.20;;;;;;6178380;28;80294;-68
2023/11/07 13:29:37;;;;;;;1.40;1.00;;;27.70;43.30;;;;;;6176597;28;82308;-67
2023/11/07 13:32:38;;;;;;;1.63;1.40;;;27.60;43.30;;;;;;6177577;28;80399;-67
2023/11/07 13:35:39;;;;;;;2.22;1.25;;;27.60;43.30;;;;;;6177890;28;81497;-67
2023/11/07 13:38:39;;;;;;;2.28;1.48;;;27.70;43.30;;;;;;6177392;28;81018;-66
2023/11/07 13:41:40;;;;;;;2.05;1.20;;;27.80;43.00;;;;;;6171133;28;83291;-63
2023/11/07 13:44:41;;;;;;;1.63;1.30;;;27.80;42.80;;;;;;6174793;28;80538;-72
2023/11/07 13:47:42;;;;;;;2.42;1.20;;;27.80;43.40;;;;;;6173850;28;80384;-72
2023/11/07 13:50:44;;;;;;;4.03;1.75;;;27.70;41.30;;;;;;6176278;28;80374;-71
2023/11/07 13:53:45;;;;;;;2.35;1.17;;;27.30;39.40;;;;;;6176352;28;81794;-75
2023/11/07 13:56:45;;;;;;;3.95;1.50;;;27.10;37.90;;;;;;6177453;28;80255;-74
2023/11/07 13:59:47;;;;;;;2.15;1.40;;;26.90;37.10;;;;;;6176464;28;80627;-74
2023/11/07 14:02:47;;;;;;;5.03;1.25;;;26.80;37.00;;;;;;6174141;28;80645;-64
2023/11/07 14:05:48;;;;;;;3.80;1.50;;;26.70;36.90;;;;;;6173633;28;80801;-62
2023/11/07 14:08:48;;;;;;;1.90;1.30;;;26.60;36.60;;;;;;6173425;28;81217;-63
2023/11/07 14:11:49;;;;;;;3.03;1.60;;;26.40;36.50;;;;;;6173707;28;83304;-66
2023/11/07 14:14:49;;;;;;;5.13;1.83;;;26.30;36.70;;;;;;6176035;28;81914;-67
2023/11/07 14:17:52;;;;;;;6.32;2.67;;;26.20;36.50;;;;;;6177230;28;80449;-63
2023/11/07 14:21:02;;;;;;;4.40;2.42;;;26.00;36.70;;;;;;6176241;28;80210;-72
2023/11/07 14:24:02;;;;;;;2.70;1.73;;;25.90;36.60;;;;;;6176234;28;80863;-71
2023/11/07 14:27:05;;;;;;;5.32;2.10;;;25.90;36.80;;;;;;6176309;28;80519;-73
2023/11/07 14:30:08;;;;;;;3.50;1.77;;;25.90;36.80;;;;;;6175954;28;80704;-74
2023/11/07 14:33:08;;;;;;;5.05;1.77;;;25.90;36.80;;;;;;6175846;28;80712;-72
2023/11/07 14:36:09;;;;;;;3.80;1.83;;;25.80;36.80;;;;;;6176846;28;80777;-68
2023/11/07 14:39:12;;;;;;;9.00;1.90;;;25.80;36.80;;;;;;6176216;28;81049;-68
2023/11/07 14:42:16;;;;;;;5.07;2.10;;;25.80;37.50;;;;;;6175663;28;80362;-66
2023/11/07 14:45:21;;;;;;;6.25;1.70;;;25.70;37.70;;;;;;6178891;28;80485;-68
2023/11/07 14:48:23;;;;;;;7.53;2.00;;;25.60;37.80;;;;;;6176601;28;81036;-72
2023/11/07 14:51:23;;;;;;;7.75;2.75;;;25.50;38.60;;;;;;6175966;28;80901;-76
2023/11/07 14:54:24;;;;;;;8.50;2.10;;;25.50;39.10;;;;;;6175187;28;80596;-75
2023/11/07 14:57:25;;;;;;;10.70;2.85;;;25.50;40.80;;;;;;6176368;28;81100;-70
2023/11/07 15:00:27;;;;;;;9.55;3.17;;;25.60;41.70;;;;;;6170865;28;80493;-72
2023/11/07 15:03:27;;;;;;;7.93;2.40;;;25.60;42.60;;;;;;6176824;28;80451;-74
2023/11/07 15:06:29;;;;;;;10.77;4.20;;;25.60;42.90;;;;;;6175055;28;80367;-71
2023/11/07 15:09:30;;;;;;;14.52;2.60;;;25.60;43.50;;;;;;6175501;28;80748;-75
2023/11/07 15:12:30;;;;;;;12.52;2.97;;;25.60;44.10;;;;;;6175105;28;80362;-66
2023/11/07 15:15:32;;;;;;;11.57;2.53;;;25.60;43.90;;;;;;6174448;28;80871;-71
2023/11/07 15:18:33;;;;;;;4.53;2.00;;;25.60;44.30;;;;;;6174036;28;80606;-70
2023/11/07 15:21:33;;;;;;;9.63;2.33;;;25.60;44.40;;;;;;6174310;28;80940;-65
2023/11/07 15:24:34;;;;;;;7.35;2.20;;;25.50;44.50;;;;;;6172408;28;80456;-62
2023/11/07 15:27:34;;;;;;;7.25;2.78;;;25.50;44.60;;;;;;6175908;28;81230;-70
2023/11/07 15:30:35;;;;;;;6.45;2.38;;;25.40;44.60;;;;;;6175574;28;81713;-63
2023/11/07 15:33:36;;;;;;;10.73;3.00;;;25.40;45.00;;;;;;6179269;28;80526;-68
2023/11/07 15:36:36;;;;;;;7.47;2.47;;;25.40;47.00;;;;;;6179752;28;81037;-68
2023/11/07 15:39:36;;;;;;;8.18;2.20;;;25.30;49.10;;;;;;6177776;28;80240;-73